Time;durP1;ratioP1;P1;durP2;ratioP2;P2;SDS_P1;SDS_P2;PMS_P1;PMS_P2;Temp;Humidity;BMP_temperature;BMP_pressure;BME280_temperature;BME280_humidity;BME280_pressure;Samples;Min_cycle;Max_cycle;Signal;HPM_P1;HPM_P2
2023/10/12 00:05:52;;;;;;;;;;;;;;;16.43;83.15;101120.75;4897341;29;20399;-90
2023/10/12 00:11:37;;;;;;;;;;;;;;;16.41;82.82;101141.13;4950962;28;19968;-90
2023/10/12 00:14:14;;;;;;;;;;;;;;;16.38;83.01;101133.28;4972926;28;20791;-90
2023/10/12 00:17:05;;;;;;;;;;;;;;;16.36;82.72;101145.69;4974268;28;19925;-90
2023/10/12 00:19:58;;;;;;;;;;;;;;;16.34;83.38;101142.22;4989609;28;19914;-90
2023/10/12 00:22:45;;;;;;;;;;;;;;;16.33;83.86;101143.13;4984080;28;19938;-91
2023/10/12 00:25:20;;;;;;;;;;;;;;;16.39;84.45;101145.56;4972290;28;19921;-90
2023/10/12 00:31:18;;;;;;;;;;;;;;;16.26;85.11;101143.34;5026144;28;20357;-90
2023/10/12 00:39:57;;;;;;;;;;;;;;;16.20;86.24;101156.72;4978323;28;19921;-90
2023/10/12 00:42:29;;;;;;;;;;;;;;;16.14;86.28;101154.25;4974731;28;19921;-90
2023/10/12 00:45:12;;;;;;;;;;;;;;;16.11;86.86;101155.22;4981133;28;20432;-90
2023/10/12 00:47:53;;;;;;;;;;;;;;;16.11;87.83;101164.94;5006176;28;20018;-90
2023/10/12 01:08:59;;;;;;;;;;;;;;;15.87;90.14;101191.16;4991698;28;19965;-91
2023/10/12 01:27:57;;;;;;;;;;;;;;;;;;;;;
2023/10/12 01:30:47;;;;;;;;;;;;;;;15.72;94.06;101194.22;4936575;29;20401;-90
2023/10/12 01:39:54;;;;;;;;;;;;;;;15.70;94.26;101188.09;4953729;28;19918;-90
2023/10/12 01:42:42;;;;;;;;;;;;;;;15.70;93.67;101193.38;4964502;28;19918;-90
2023/10/12 01:57:31;;;;;;;;;;;;;;;15.64;93.36;101143.34;4981556;28;19920;-91
2023/10/12 02:12:52;;;;;;;;;;;;;;;;;;;;;
2023/10/12 02:18:35;;;;;;;;;;;;;;;15.42;96.63;101157.16;5016741;28;19940;-91
2023/10/12 02:27:13;;;;;;;;;;;;;;;;;;;;;
2023/10/12 02:30:12;;;;;;;;;;;;;;;;;;;;;
2023/10/12 02:33:36;;;;;;;;;;;;;;;;;;;;;
2023/10/12 02:36:28;;;;;;;;;;;;;;;15.31;99.71;101160.06;5093537;28;20261;-91
2023/10/12 02:42:10;;;;;;;;;;;;;;;15.23;100.00;101144.44;5032428;28;20548;-91
2023/10/12 02:48:04;;;;;;;;;;;;;;;15.19;99.08;101113.75;5033123;28;19951;-91
2023/10/12 02:53:39;;;;;;;;;;;;;;;15.15;99.06;101145.53;4993002;28;19922;-91
2023/10/12 02:59:38;;;;;;;;;;;;;;;;;;;;;
2023/10/12 03:05:18;;;;;;;;;;;;;;;15.05;100.00;101147.56;4986750;28;19940;-91
2023/10/12 03:08:05;;;;;;;;;;;;;;;;;;;;;
2023/10/12 03:10:45;;;;;;;;;;;;;;;15.03;99.51;101123.00;5052467;28;19927;-91
2023/10/12 03:13:24;;;;;;;;;;;;;;;15.00;99.40;101108.09;5036176;28;19921;-90
2023/10/12 03:19:25;;;;;;;;;;;;;;;15.02;100.00;101114.19;4987185;28;19992;-90
2023/10/12 03:22:16;;;;;;;;;;;;;;;;;;;;;
2023/10/12 03:37:14;;;;;;;;;;;;;;;14.81;100.00;101136.72;4974799;28;19926;-91
2023/10/12 03:40:11;;;;;;;;;;;;;;;;;;;;;
2023/10/12 03:49:06;;;;;;;;;;;;;;;14.73;100.00;101115.78;4990081;28;19920;-90
2023/10/12 04:12:52;;;;;;;;;;;;;;;14.65;100.00;101145.91;5053006;28;19921;-90
2023/10/12 04:15:27;;;;;;;;;;;;;;;14.66;100.00;101171.38;5032654;28;20352;-91
2023/10/12 04:18:15;;;;;;;;;;;;;;;14.66;100.00;101171.38;5038772;28;20322;-91
2023/10/12 04:20:50;;;;;;;;;;;;;;;14.65;100.00;101169.63;5040139;28;19977;-91
2023/10/12 04:35:18;;;;;;;;;;;;;;;14.64;100.00;101157.34;5039633;28;19921;-91
2023/10/12 04:38:08;;;;;;;;;;;;;;;14.63;100.00;101151.22;5034637;28;20452;-91
2023/10/12 04:41:12;;;;;;;;;;;;;;;14.63;100.00;101150.34;5016059;28;19921;-91
2023/10/12 04:44:06;;;;;;;;;;;;;;;14.59;100.00;101160.06;5048016;28;19920;-91
2023/10/12 04:55:47;;;;;;;;;;;;;;;14.62;100.00;101175.84;5069981;28;19971;-91
2023/10/12 04:58:42;;;;;;;;;;;;;;;;;;;;;
2023/10/12 05:09:54;;;;;;;;;;;;;;;14.57;100.00;101172.44;5047843;28;19990;-91
2023/10/12 05:12:20;;;;;;;;;;;;;;;14.58;100.00;101179.41;5070793;28;19940;-92
2023/10/12 05:14:46;;;;;;;;;;;;;;;14.55;100.00;101185.66;5070944;28;19916;-91
2023/10/12 05:17:17;;;;;;;;;;;;;;;14.57;100.00;101188.25;5067501;28;19916;-92
2023/10/12 05:19:52;;;;;;;;;;;;;;;14.56;100.00;101203.19;5037779;28;19913;-91
2023/10/12 05:22:18;;;;;;;;;;;;;;;14.57;100.00;101209.34;5069143;28;20008;-91
2023/10/12 05:24:51;;;;;;;;;;;;;;;14.61;100.00;101212.78;5070821;28;19917;-92
2023/10/12 05:27:38;;;;;;;;;;;;;;;14.62;100.00;101196.94;5038200;28;20423;-92
2023/10/12 05:30:16;;;;;;;;;;;;;;;14.65;100.00;101198.66;5056553;28;20061;-91
2023/10/12 05:32:55;;;;;;;;;;;;;;;14.65;100.00;101206.56;5069653;28;20421;-91
2023/10/12 05:35:50;;;;;;;;;;;;;;;14.64;100.00;101204.81;5070937;28;20080;-91
2023/10/12 05:38:48;;;;;;;;;;;;;;;14.63;100.00;101219.78;5066478;28;19925;-91
2023/10/12 05:41:34;;;;;;;;;;;;;;;14.65;100.00;101206.56;5058195;28;19916;-91
2023/10/12 05:46:35;;;;;;;;;;;;;;;14.65;100.00;101207.44;5101528;22;19931;-65
2023/10/12 05:49:02;;;;;;;;;;;;;;;14.66;100.00;101213.56;5043019;28;19928;-66
2023/10/12 05:51:27;;;;;;;;;;;;;;;14.67;100.00;101205.63;5056599;28;19981;-64
2023/10/12 05:54:02;;;;;;;;;;;;;;;14.65;100.00;101206.56;5057546;28;20335;-64
2023/10/12 05:56:30;;;;;;;;;;;;;;;14.65;100.00;101220.63;5061347;28;19920;-64
2023/10/12 05:58:55;;;;;;;;;;;;;;;14.67;100.00;101231.16;5054619;28;20379;-64
2023/10/12 06:01:32;;;;;;;;;;;;;;;14.68;100.00;101235.50;5056940;28;19951;-64
2023/10/12 06:04:05;;;;;;;;;;;;;;;14.68;100.00;101238.13;5041643;28;19920;-64
2023/10/12 06:06:34;;;;;;;;;;;;;;;14.67;100.00;101236.41;5055104;28;19920;-64
2023/10/12 06:09:00;;;;;;;;;;;;;;;14.68;100.00;101238.13;5071296;28;20331;-66
2023/10/12 06:11:26;;;;;;;;;;;;;;;14.72;100.00;101247.72;5057643;28;20007;-64
2023/10/12 06:13:52;;;;;;;;;;;;;;;14.69;100.00;101243.38;5063495;28;19927;-65
2023/10/12 06:16:20;;;;;;;;;;;;;;;14.68;100.00;101235.50;5057070;28;19913;-66
2023/10/12 06:18:45;;;;;;;;;;;;;;;14.70;100.00;101239.00;5048127;28;20030;-65
2023/10/12 06:21:19;;;;;;;;;;;;;;;14.69;100.00;101245.16;5057559;28;20014;-65
2023/10/12 06:23:50;;;;;;;;;;;;;;;14.69;100.00;101256.56;5053678;28;19940;-65
2023/10/12 06:26:28;;;;;;;;;;;;;;;14.69;100.00;101256.56;5062402;28;19913;-66
2023/10/12 06:29:03;;;;;;;;;;;;;;;14.71;100.00;101262.69;5058647;28;19995;-66
2023/10/12 06:31:31;;;;;;;;;;;;;;;14.73;100.00;101273.22;5060225;28;20243;-65
2023/10/12 06:33:59;;;;;;;;;;;;;;;14.73;100.00;101265.28;5037446;28;19961;-66
2023/10/12 06:36:37;;;;;;;;;;;;;;;14.74;100.00;101259.13;5058480;28;19917;-66
2023/10/12 06:46:49;;;;;;;;;;;;;;;14.76;100.00;101265.22;5053152;28;20303;-65
2023/10/12 06:49:21;;;;;;;;;;;;;;;14.70;100.00;101262.72;5035949;28;20349;-64
2023/10/12 06:51:53;;;;;;;;;;;;;;;14.69;100.00;101266.25;5056550;28;19917;-64
2023/10/12 06:54:31;;;;;;;;;;;;;;;14.71;100.00;101270.59;5055814;28;20360;-64
2023/10/12 06:57:12;;;;;;;;;;;;;;;14.69;100.00;101266.25;5053608;28;19916;-64
2023/10/12 06:59:38;;;;;;;;;;;;;;;14.70;100.00;101275.91;5051926;28;19924;-64
2023/10/12 07:02:09;;;;;;;;;;;;;;;14.71;100.00;101272.34;5072205;28;20304;-64
2023/10/12 07:04:53;;;;;;;;;;;;;;;14.72;100.00;101275.00;5055332;28;19921;-64
2023/10/12 07:07:18;;;;;;;;;;;;;;;14.72;100.00;101276.75;5055045;28;19925;-64
2023/10/12 07:09:46;;;;;;;;;;;;;;;14.72;100.00;101282.00;5036218;28;19925;-64
2023/10/12 07:12:12;;;;;;;;;;;;;;;14.73;100.00;101286.41;5056601;28;19916;-63
2023/10/12 07:14:39;;;;;;;;;;;;;;;14.74;100.00;101296.06;5061199;28;19917;-63
2023/10/12 07:17:07;;;;;;;;;;;;;;;14.77;100.00;101301.25;5057841;28;20005;-64
2023/10/12 07:19:33;;;;;;;;;;;;;;;14.73;100.00;101300.44;5057103;28;20267;-64
2023/10/12 07:22:01;;;;;;;;;;;;;;;14.71;100.00;101301.38;5057514;28;19917;-64
2023/10/12 07:24:27;;;;;;;;;;;;;;;14.71;100.00;101301.38;5055645;28;20023;-64
2023/10/12 07:26:52;;;;;;;;;;;;;;;14.71;100.00;101307.53;5055952;28;19960;-65
2023/10/12 07:29:35;;;;;;;;;;;;;;;14.73;100.00;101302.22;5048103;28;19916;-65
2023/10/12 07:32:08;;;;;;;;;;;;;;;14.74;100.00;101301.34;5037858;28;20292;-64
2023/10/12 07:34:33;;;;;;;;;;;;;;;14.73;100.00;101311.00;5049086;28;19943;-64
2023/10/12 07:36:58;;;;;;;;;;;;;;;14.73;100.00;101320.69;5055437;28;20368;-63
2023/10/12 07:39:38;;;;;;;;;;;;;;;14.72;100.00;101325.09;5038363;28;20287;-63
2023/10/12 07:42:05;;;;;;;;;;;;;;;14.73;100.00;101326.81;5045260;28;19924;-63
2023/10/12 07:44:39;;;;;;;;;;;;;;;14.73;100.00;101316.28;5066842;28;19912;-64
2023/10/12 07:47:13;;;;;;;;;;;;;;;14.73;100.00;101310.13;5039557;28;19920;-64
2023/10/12 07:49:40;;;;;;;;;;;;;;;14.74;100.00;101311.88;5066240;28;19913;-63
2023/10/12 07:54:47;;;;;;;;;;;;;;;14.76;100.00;101320.63;5085713;28;19912;-64
2023/10/12 07:57:16;;;;;;;;;;;;;;;14.77;100.00;101316.19;5054072;28;19924;-63
2023/10/12 07:59:54;;;;;;;;;;;;;;;14.77;100.00;101317.09;5055708;28;20344;-63
2023/10/12 08:02:32;;;;;;;;;;;;;;;14.78;100.00;101328.50;5055316;28;19920;-65
2023/10/12 08:05:05;;;;;;;;;;;;;;;14.80;100.00;101326.72;5053851;28;19927;-65
2023/10/12 08:07:55;;;;;;;;;;;;;;;14.77;100.00;101317.09;5040346;28;20406;-65
2023/10/12 08:10:16;;;;;;;;;;;;;;;14.79;100.00;101320.53;5043487;28;19924;-64
2023/10/12 08:12:45;;;;;;;;;;;;;;;14.81;100.00;101323.16;5064357;28;19920;-65
2023/10/12 08:15:12;;;;;;;;;;;;;;;14.81;100.00;101318.75;5068017;28;19923;-64
2023/10/12 08:17:39;;;;;;;;;;;;;;;14.83;100.00;101316.94;5063920;28;19973;-65
2023/10/12 08:22:54;;;;;;;;;;;;;;;14.84;100.00;101318.69;5050070;28;20010;-64
2023/10/12 08:25:27;;;;;;;;;;;;;;;14.87;100.00;101317.75;5037799;28;19917;-64
2023/10/12 08:27:53;;;;;;;;;;;;;;;14.90;100.00;101318.53;5054856;28;19920;-64
2023/10/12 08:30:48;;;;;;;;;;;;;;;14.92;100.00;101326.44;5038059;28;20379;-64
2023/10/12 08:33:14;;;;;;;;;;;;;;;14.97;100.00;101323.69;5068464;28;19969;-65
2023/10/12 08:36:10;;;;;;;;;;;;;;;15.02;100.00;101327.09;5056140;28;19912;-65
2023/10/12 08:38:53;;;;;;;;;;;;;;;15.09;100.00;101333.97;5071813;28;19985;-65
2023/10/12 08:41:28;;;;;;;;;;;;;;;15.17;100.00;101334.66;5069155;28;19969;-65
2023/10/12 08:43:59;;;;;;;;;;;;;;;15.26;100.00;101328.31;5051257;28;20288;-65
2023/10/12 08:49:33;;;;;;;;;;;;;;;15.47;100.00;101333.97;5072588;28;20381;-64
2023/10/12 08:54:41;;;;;;;;;;;;;;;15.64;100.00;101339.69;5043389;28;19977;-64
2023/10/12 08:57:12;;;;;;;;;;;;;;;15.70;100.00;101341.31;5054409;28;20264;-64
2023/10/12 08:59:39;;;;;;;;;;;;;;;15.74;100.00;101342.97;5055440;28;19920;-64
2023/10/12 09:02:18;;;;;;;;;;;;;;;15.76;100.00;101347.31;5054365;28;20002;-64
2023/10/12 09:04:48;;;;;;;;;;;;;;;15.76;100.00;101349.97;5053274;28;19912;-64
2023/10/12 09:07:19;;;;;;;;;;;;;;;15.76;100.00;101357.91;5047649;28;20206;-65
2023/10/12 09:09:55;;;;;;;;;;;;;;;15.77;100.00;101356.13;5058933;28;19916;-67
2023/10/12 09:12:21;;;;;;;;;;;;;;;15.73;100.00;101352.69;5053571;28;20287;-65
2023/10/12 09:14:47;;;;;;;;;;;;;;;15.72;100.00;101344.81;5059831;28;19916;-65
2023/10/12 09:17:27;;;;;;;;;;;;;;;15.70;100.00;101346.59;5072001;28;20424;-65
2023/10/12 09:19:57;;;;;;;;;;;;;;;15.72;100.00;101336.88;5067449;28;19920;-65
2023/10/12 09:22:29;;;;;;;;;;;;;;;15.71;100.00;101332.50;5044294;28;20001;-65
2023/10/12 09:24:59;;;;;;;;;;;;;;;15.74;100.00;101324.50;5048042;28;19916;-63
2023/10/12 09:27:36;;;;;;;;;;;;;;;15.82;100.00;101319.91;5045252;28;19928;-63
2023/10/12 09:30:05;;;;;;;;;;;;;;;15.58;100.00;101316.09;5042166;28;19927;-63
2023/10/12 09:32:33;;;;;;;;;;;;;;;15.53;100.00;101318.84;5062544;28;19960;-63
2023/10/12 09:35:14;;;;;;;;;;;;;;;15.56;100.00;101324.06;5064355;28;19920;-63
2023/10/12 09:37:51;;;;;;;;;;;;;;;15.55;100.00;101327.59;5057467;28;20361;-62
2023/10/12 09:40:27;;;;;;;;;;;;;;;15.57;100.00;101331.06;5063546;28;20272;-63
2023/10/12 09:43:01;;;;;;;;;;;;;;;15.61;100.00;101331.84;5044771;28;19959;-63
2023/10/12 09:45:33;;;;;;;;;;;;;;;15.65;100.00;101317.66;5058998;28;20295;-64
2023/10/12 09:48:05;;;;;;;;;;;;;;;15.74;100.00;101332.41;5065550;28;19916;-64
2023/10/12 09:50:32;;;;;;;;;;;;;;;15.83;100.00;101332.22;5057937;28;20260;-63
2023/10/12 09:52:58;;;;;;;;;;;;;;;15.91;100.00;101324.94;5064067;28;19921;-63
2023/10/12 09:55:32;;;;;;;;;;;;;;;15.97;100.00;101328.34;5041506;28;19917;-63
2023/10/12 09:58:06;;;;;;;;;;;;;;;16.00;100.00;101321.19;5075684;28;20282;-63
2023/10/12 10:03:17;;;;;;;;;;;;;;;16.12;100.00;101322.66;5081509;28;19950;-63
2023/10/12 10:05:52;;;;;;;;;;;;;;;16.16;100.00;101324.31;5071278;28;19927;-64
2023/10/12 10:08:18;;;;;;;;;;;;;;;16.09;100.00;101313.03;5057024;28;19995;-63
2023/10/12 10:10:45;;;;;;;;;;;;;;;16.07;100.00;101313.97;5063479;28;20073;-63
2023/10/12 10:13:30;;;;;;;;;;;;;;;16.05;100.00;101318.44;5061052;28;19925;-64
2023/10/12 10:15:55;;;;;;;;;;;;;;;16.01;100.00;101328.22;5051578;28;20371;-64
2023/10/12 10:18:27;;;;;;;;;;;;;;;15.98;100.00;101320.38;5060678;28;19927;-64
2023/10/12 10:20:56;;;;;;;;;;;;;;;15.94;100.00;101319.56;5058479;28;19917;-63
2023/10/12 10:23:22;;;;;;;;;;;;;;;15.91;100.00;101314.38;5051479;28;19922;-64
2023/10/12 10:25:56;;;;;;;;;;;;;;;15.93;100.00;101307.28;5061013;28;19971;-63
2023/10/12 10:28:28;;;;;;;;;;;;;;;15.86;100.00;101307.47;5062523;28;20360;-64
2023/10/12 10:31:04;;;;;;;;;;;;;;;15.92;100.00;101299.41;5059390;28;19916;-63
2023/10/12 10:33:36;;;;;;;;;;;;;;;15.92;100.00;101292.34;5058047;28;19928;-64
2023/10/12 10:36:10;;;;;;;;;;;;;;;15.90;100.00;101294.16;5060835;28;20007;-63
2023/10/12 10:38:39;;;;;;;;;;;;;;;15.83;100.00;101299.63;5043540;28;20042;-63
2023/10/12 10:41:06;;;;;;;;;;;;;;;15.86;100.00;101300.44;5035171;28;19916;-63
2023/10/12 10:43:34;;;;;;;;;;;;;;;15.93;100.00;101285.25;5039789;28;19925;-64
2023/10/12 10:46:03;;;;;;;;;;;;;;;15.93;100.00;101285.25;5060174;28;19924;-63
2023/10/12 10:48:29;;;;;;;;;;;;;;;15.90;100.00;101288.88;5057408;28;19928;-64
2023/10/12 10:50:54;;;;;;;;;;;;;;;15.92;100.00;101287.03;5051814;28;19916;-65
2023/10/12 10:53:20;;;;;;;;;;;;;;;15.99;100.00;101287.75;5063574;28;20364;-63
2023/10/12 10:55:50;;;;;;;;;;;;;;;15.90;100.00;101286.22;5073423;28;19946;-65
2023/10/12 10:58:17;;;;;;;;;;;;;;;15.98;100.00;101279.88;5057535;28;19930;-65
2023/10/12 11:00:45;;;;;;;;;;;;;;;16.01;100.00;101280.63;5063565;28;20295;-63
2023/10/12 11:03:20;;;;;;;;;;;;;;;16.04;100.00;101279.69;5057235;28;20007;-63
2023/10/12 11:05:46;;;;;;;;;;;;;;;16.08;100.00;101284.00;5059123;28;19913;-64
2023/10/12 11:08:21;;;;;;;;;;;;;;;16.13;100.00;101279.41;5039657;28;20576;-63
2023/10/12 11:13:52;;;;;;;;;;;;;;;16.26;100.00;101283.47;4989306;28;19972;-65
2023/10/12 11:16:22;;;;;;;;;;;;;;;16.40;100.00;101279.56;5023316;28;19923;-65
2023/10/12 11:18:48;;;;;;;;;;;;;;;16.33;100.00;101276.22;5043034;28;19916;-64
2023/10/12 11:21:17;;;;;;;;;;;;;;;16.28;100.00;101271.06;5063443;28;19927;-65
2023/10/12 11:23:45;;;;;;;;;;;;;;;16.32;100.00;101270.97;5063755;28;19942;-65
2023/10/12 11:26:21;;;;;;;;;;;;;;;16.31;100.00;101259.53;5065059;28;19946;-65
2023/10/12 11:29:00;;;;;;;;;;;;;;;16.34;100.00;101269.16;5062109;28;19912;-64
2023/10/12 11:31:31;;;;;;;;;;;;;;;16.32;100.00;101263.03;5053426;28;20582;-64
2023/10/12 11:34:06;;;;;;;;;;;;;;;16.36;100.00;101267.34;5050221;28;19955;-65
2023/10/12 11:36:33;;;;;;;;;;;;;;;16.37;100.00;101271.72;5065551;28;20296;-65
2023/10/12 11:38:59;;;;;;;;;;;;;;;16.44;100.00;101268.84;5055359;28;19941;-65
2023/10/12 11:41:25;;;;;;;;;;;;;;;16.40;100.00;101269.84;5055924;28;19956;-65
2023/10/12 11:43:53;;;;;;;;;;;;;;;16.43;100.00;101261.84;5057674;28;19982;-65
2023/10/12 11:46:18;;;;;;;;;;;;;;;16.43;100.00;101263.59;5061597;28;19921;-65
2023/10/12 11:48:44;;;;;;;;;;;;;;;16.46;100.00;101255.56;5061863;28;19920;-65
2023/10/12 11:51:13;;;;;;;;;;;;;;;16.56;100.00;101264.09;5063132;28;19916;-65
2023/10/12 11:53:39;;;;;;;;;;;;;;;16.58;100.00;101259.66;5055283;28;19916;-65
2023/10/12 11:56:14;;;;;;;;;;;;;;;16.66;100.00;101252.31;5054824;28;20307;-65
2023/10/12 11:58:48;;;;;;;;;;;;;;;16.67;100.00;101255.84;5054249;28;19955;-65
2023/10/12 12:01:14;;;;;;;;;;;;;;;16.64;100.00;101246.22;5055050;28;19999;-65
2023/10/12 12:03:40;;;;;;;;;;;;;;;16.57;100.00;101250.81;5041119;28;19921;-65
2023/10/12 12:06:12;;;;;;;;;;;;;;;16.57;100.00;101250.81;5055518;28;19916;-65
2023/10/12 12:08:37;;;;;;;;;;;;;;;16.55;100.00;101239.44;5057365;28;19947;-65
2023/10/12 12:11:03;;;;;;;;;;;;;;;16.58;100.00;101241.97;5055240;28;20394;-64
2023/10/12 12:13:28;;;;;;;;;;;;;;;16.60;100.00;101256.00;5054853;28;19916;-65
2023/10/12 12:15:58;;;;;;;;;;;;;;;16.74;100.00;101260.91;5058244;28;19954;-65
2023/10/12 12:18:23;;;;;;;;;;;;;;;16.71;100.00;101249.56;5055933;28;20327;-63
2023/10/12 12:20:52;;;;;;;;;;;;;;;16.66;100.00;101254.97;5054958;28;19919;-63
2023/10/12 12:23:18;;;;;;;;;;;;;;;16.76;100.00;101250.25;5057228;28;19920;-63
2023/10/12 12:25:44;;;;;;;;;;;;;;;16.71;100.00;101252.19;5059416;28;20268;-63
2023/10/12 12:28:14;;;;;;;;;;;;;;;16.73;100.00;101242.41;5071972;28;19931;-63
2023/10/12 12:30:46;;;;;;;;;;;;;;;16.78;100.00;101244.00;5058556;28;19963;-63
2023/10/12 12:33:15;;;;;;;;;;;;;;;16.82;100.00;101228.03;5051441;28;20007;-63
2023/10/12 12:35:41;;;;;;;;;;;;;;;16.84;100.00;101220.91;5046718;28;20390;-63
2023/10/12 12:38:14;;;;;;;;;;;;;;;16.86;100.00;101211.16;5053339;28;20236;-63
2023/10/12 12:40:40;;;;;;;;;;;;;;;16.85;100.00;101206.75;5055770;28;19920;-64
2023/10/12 12:43:07;;;;;;;;;;;;;;;16.75;100.00;101211.47;5063797;28;19973;-64
2023/10/12 12:45:35;;;;;;;;;;;;;;;16.83;100.00;101214.75;5053992;28;19921;-64
2023/10/12 12:48:01;;;;;;;;;;;;;;;16.73;100.00;101213.31;5020579;28;19952;-64
2023/10/12 12:50:28;;;;;;;;;;;;;;;16.75;100.00;101215.00;5047854;28;19920;-64
2023/10/12 12:52:53;;;;;;;;;;;;;;;16.60;100.00;101224.25;5059747;28;20341;-64
2023/10/12 12:55:21;;;;;;;;;;;;;;;16.57;100.00;101234.09;5056049;28;19921;-64
2023/10/12 12:57:46;;;;;;;;;;;;;;;16.61;100.00;101220.72;5035272;28;19934;-64
2023/10/12 13:00:19;;;;;;;;;;;;;;;16.58;100.00;101218.16;5054019;28;20233;-64
2023/10/12 13:02:46;;;;;;;;;;;;;;;16.59;100.00;101219.91;5058211;28;19963;-64
2023/10/12 13:05:11;;;;;;;;;;;;;;;16.66;100.00;101217.91;5053659;28;19917;-64
2023/10/12 13:07:36;;;;;;;;;;;;;;;16.55;100.00;101215.63;5057796;28;19917;-64
2023/10/12 13:10:02;;;;;;;;;;;;;;;16.57;100.00;101219.06;5058548;28;19916;-64
2023/10/12 13:12:33;;;;;;;;;;;;;;;16.59;100.00;101217.25;5034046;28;19921;-64
2023/10/12 13:15:02;;;;;;;;;;;;;;;16.54;100.00;101219.16;5055247;28;20406;-64
2023/10/12 13:17:31;;;;;;;;;;;;;;;16.58;100.00;101214.66;5038158;28;19916;-64
2023/10/12 13:19:59;;;;;;;;;;;;;;;16.58;100.00;101217.31;5053166;28;19913;-64
2023/10/12 13:22:27;;;;;;;;;;;;;;;16.59;100.00;101211.97;5053120;28;19939;-64
2023/10/12 13:24:57;;;;;;;;;;;;;;;16.59;100.00;101219.03;5071793;28;19956;-64
2023/10/12 13:27:24;;;;;;;;;;;;;;;16.58;100.00;101204.94;5060236;28;19966;-64
2023/10/12 13:29:50;;;;;;;;;;;;;;;16.59;100.00;101208.44;5057890;28;19919;-64
2023/10/12 13:32:17;;;;;;;;;;;;;;;16.57;100.00;101208.50;5060372;28;19923;-64
2023/10/12 13:34:42;;;;;;;;;;;;;;;16.54;100.00;101208.59;5029719;28;19937;-64
2023/10/12 13:37:08;;;;;;;;;;;;;;;16.52;100.00;101209.53;5053826;28;19966;-64
2023/10/12 13:39:33;;;;;;;;;;;;;;;16.53;100.00;101217.44;5030627;28;20296;-64
2023/10/12 13:41:58;;;;;;;;;;;;;;;16.55;100.00;101212.97;5060686;28;20368;-64
2023/10/12 13:44:25;;;;;;;;;;;;;;;16.56;100.00;101206.75;5053893;28;20000;-64
2023/10/12 13:46:51;;;;;;;;;;;;;;;16.53;100.00;101209.50;5053116;28;19928;-64
2023/10/12 13:49:17;;;;;;;;;;;;;;;16.53;100.00;101206.84;5036630;28;19924;-64
2023/10/12 13:51:47;;;;;;;;;;;;;;;16.57;100.00;101203.19;5061570;28;19935;-64
2023/10/12 13:54:14;;;;;;;;;;;;;;;16.55;100.00;101196.22;5037854;28;19924;-64
2023/10/12 13:56:39;;;;;;;;;;;;;;;16.58;100.00;101199.66;5054217;28;19932;-64
2023/10/12 13:59:05;;;;;;;;;;;;;;;16.61;100.00;101199.56;5022488;28;19921;-64
2023/10/12 14:01:36;;;;;;;;;;;;;;;16.62;100.00;101195.13;5064887;28;19912;-64
2023/10/12 14:04:02;;;;;;;;;;;;;;;16.60;100.00;101191.66;5069562;28;19927;-64
2023/10/12 14:06:27;;;;;;;;;;;;;;;16.61;100.00;101190.75;5054123;28;19913;-64
2023/10/12 14:08:53;;;;;;;;;;;;;;;16.66;100.00;101180.03;5058373;28;19924;-64
2023/10/12 14:11:19;;;;;;;;;;;;;;;16.65;100.00;101183.56;5057572;28;19938;-64
2023/10/12 14:13:44;;;;;;;;;;;;;;;16.72;100.00;101177.16;5054267;28;19927;-64
2023/10/12 14:16:10;;;;;;;;;;;;;;;16.79;100.00;101176.94;5053874;28;19916;-64
2023/10/12 14:18:36;;;;;;;;;;;;;;;16.67;100.00;101174.69;5053582;28;19927;-64
2023/10/12 14:21:02;;;;;;;;;;;;;;;16.67;100.00;101187.06;5053825;28;19971;-64
2023/10/12 14:23:29;;;;;;;;;;;;;;;16.70;100.00;101181.66;5040880;28;19921;-64
2023/10/12 14:25:57;;;;;;;;;;;;;;;16.61;100.00;101173.09;5058649;28;20020;-64
2023/10/12 14:28:23;;;;;;;;;;;;;;;16.62;100.00;101161.59;5056532;28;20035;-64
2023/10/12 14:30:50;;;;;;;;;;;;;;;16.57;100.00;101158.22;5057274;28;19917;-64
2023/10/12 14:33:16;;;;;;;;;;;;;;;16.62;100.00;101164.25;5055338;28;19963;-65
2023/10/12 14:35:42;;;;;;;;;;;;;;;16.42;100.00;101166.63;5053983;28;19917;-64
2023/10/12 14:38:12;;;;;;;;;;;;;;;16.36;100.00;101174.78;5055987;28;20007;-64
2023/10/12 14:40:40;;;;;;;;;;;;;;;16.36;100.00;101188.00;5057070;28;19938;-65
2023/10/12 14:43:06;;;;;;;;;;;;;;;16.18;100.00;101179.69;5056600;28;20319;-67
2023/10/12 14:45:36;;;;;;;;;;;;;;;16.10;100.00;101177.31;5051733;28;19916;-66
2023/10/12 14:48:09;;;;;;;;;;;;;;;15.97;100.00;101188.25;5037167;28;19951;-66
2023/10/12 14:50:47;;;;;;;;;;;;;;;15.92;100.00;101177.84;5056632;28;19920;-65
2023/10/12 14:53:15;;;;;;;;;;;;;;;15.89;100.00;101185.84;5056563;28;19924;-65
2023/10/12 14:55:44;;;;;;;;;;;;;;;15.88;100.00;101186.75;5029536;28;20479;-65
2023/10/12 14:58:12;;;;;;;;;;;;;;;15.87;100.00;101183.22;5056542;28;19912;-65
2023/10/12 15:00:37;;;;;;;;;;;;;;;15.83;100.00;101184.25;5059391;28;20300;-65
2023/10/12 15:03:04;;;;;;;;;;;;;;;15.86;100.00;101188.56;5056130;28;19926;-65
2023/10/12 15:05:32;;;;;;;;;;;;;;;15.83;100.00;101181.59;5055511;28;20362;-65
2023/10/12 15:07:58;;;;;;;;;;;;;;;15.81;100.00;101182.56;5056483;28;19923;-65
2023/10/12 15:10:23;;;;;;;;;;;;;;;15.75;100.00;101173.00;5055665;28;20011;-65
2023/10/12 15:12:50;;;;;;;;;;;;;;;15.74;100.00;101173.88;5056449;28;20319;-65
2023/10/12 15:15:20;;;;;;;;;;;;;;;15.71;100.00;101163.41;5056760;28;19994;-65
2023/10/12 15:17:46;;;;;;;;;;;;;;;15.81;100.00;101166.69;5057569;28;19912;-65
2023/10/12 15:20:15;;;;;;;;;;;;;;;15.66;100.00;101167.94;5057215;28;19927;-64
2023/10/12 15:22:41;;;;;;;;;;;;;;;15.68;100.00;101163.50;5054716;28;19963;-65
2023/10/12 15:25:07;;;;;;;;;;;;;;;15.68;100.00;101169.63;5057653;28;19970;-64
2023/10/12 15:27:32;;;;;;;;;;;;;;;15.59;100.00;101165.47;5056431;28;19935;-64
2023/10/12 15:29:59;;;;;;;;;;;;;;;15.59;100.00;101160.19;5056601;28;19994;-65
2023/10/12 15:32:25;;;;;;;;;;;;;;;15.59;100.00;101162.84;5057109;28;19970;-64
2023/10/12 15:34:51;;;;;;;;;;;;;;;15.57;100.00;101169.06;5057884;28;19927;-64
2023/10/12 15:37:16;;;;;;;;;;;;;;;15.64;100.00;101168.00;5055591;28;19920;-65
2023/10/12 15:39:42;;;;;;;;;;;;;;;15.61;100.00;101164.59;5058493;28;19921;-65
2023/10/12 15:42:11;;;;;;;;;;;;;;;15.60;100.00;101168.97;5057750;28;19917;-64
2023/10/12 15:47:05;;;;;;;;;;;;;;;15.70;100.00;101172.22;5069121;28;19982;-66
2023/10/12 15:49:31;;;;;;;;;;;;;;;15.61;100.00;101177.78;5392483;22;19924;-65
2023/10/12 16:02:33;;;;;;;;;;;;;;;15.70;100.00;101169.59;5086417;28;19931;-66
2023/10/12 16:04:59;;;;;;;;;;;;;;;15.72;100.00;101159.88;5058031;28;19928;-65
2023/10/12 16:07:24;;;;;;;;;;;;;;;15.74;100.00;101163.31;5074863;28;19934;-65
2023/10/12 16:12:25;;;;;;;;;;;;;;;15.78;100.00;101167.63;5189186;22;19950;-64
2023/10/12 16:14:53;;;;;;;;;;;;;;;15.81;100.00;101179.91;5144763;22;20358;-66
2023/10/12 16:17:22;;;;;;;;;;;;;;;15.76;100.00;101178.22;5110059;28;20399;-65
2023/10/12 16:19:51;;;;;;;;;;;;;;;15.76;100.00;101177.38;5107479;28;19963;-65
2023/10/12 16:42:42;;;;;;;;;;;;;;;15.82;100.00;101174.56;5066006;28;19925;-65
2023/10/12 16:45:09;;;;;;;;;;;;;;;15.81;100.00;101174.63;5044909;28;19939;-65
2023/10/12 16:47:36;;;;;;;;;;;;;;;15.78;100.00;101178.19;5045260;28;19927;-65
2023/10/12 16:50:02;;;;;;;;;;;;;;;15.76;100.00;101172.09;5066894;28;20377;-65
2023/10/12 16:52:28;;;;;;;;;;;;;;;15.74;100.00;101179.16;5049282;28;19927;-66
2023/10/12 16:54:53;;;;;;;;;;;;;;;15.77;100.00;101174.69;5062251;28;20003;-66
2023/10/12 16:57:18;;;;;;;;;;;;;;;15.75;100.00;101179.13;5065466;28;19917;-65
2023/10/12 16:59:44;;;;;;;;;;;;;;;15.83;100.00;101181.59;5052226;28;20222;-65
2023/10/12 17:02:10;;;;;;;;;;;;;;;15.76;100.00;101182.66;5069705;28;19916;-65
2023/10/12 17:04:49;;;;;;;;;;;;;;;15.76;100.00;101174.72;5045784;28;19924;-66
2023/10/12 17:07:15;;;;;;;;;;;;;;;15.73;100.00;101188.00;5068325;28;19920;-65